Date,TemperatureHighF,TemperatureAvgF,TemperatureLowF,DewpointHighF,DewpointAvgF,DewpointLowF,HumidityHigh,HumidityAvg,HumidityLow,PressureMaxIn,PressureMinIn,WindSpeedMaxMPH,WindSpeedAvgMPH,GustSpeedMaxMPH,PrecipitationSumIn
2013-10-1,56,50,47,49,46,44,95,88,71,30.17,29.94,11,2,17,0.43
2013-10-2,52,48,44,48,46,43,97,93,86,30.19,30.07,7,1,8,0.50
2013-10-3,56,48,42,50,46,42,98,91,76,30.44,30.19,4,1,6,0.01
2013-10-4,63,50,42,54,46,41,98,90,62,30.45,30.34,9,3,10,0.00
2013-10-5,67,51,42,55,47,41,98,87,56,30.36,30.12,7,2,8,0.01
2013-10-6,71,56,47,55,49,40,96,79,32,30.12,29.93,11,3,14,0.01
2013-10-7,56,53,51,52,49,46,92,85,72,30.12,29.95,15,6,18,0.37
2013-10-8,54,51,44,49,47,42,95,86,74,30.12,29.99,15,7,18,0.42
2013-10-9,58,48,40,49,44,39,99,88,62,30.13,29.98,8,2,9,0.01
2013-10-10,53,50,47,51,48,46,96,90,81,30.09,29.96,10,2,12,0.02
2013-10-11,56,52,48,48,46,44,94,83,68,30.15,30.09,7,2,8,0.00
2013-10-12,55,49,43,48,46,42,97,89,75,30.20,30.07,5,1,6,0.03
2013-10-13,61,48,39,51,44,38,99,89,57,30.34,30.20,7,1,8,0.01
2013-10-14,62,48,39,51,45,38,98,88,61,30.39,30.32,5,2,6,0.01
2013-10-15,64,50,42,51,45,40,96,86,47,30.36,30.16,7,2,8,0.00
2013-10-16,60,49,42,53,47,41,98,91,74,30.19,30.12,8,3,9,0.01
2013-10-17,61,51,47,53,48,45,95,89,74,30.25,30.17,10,5,12,0.00
2013-10-18,65,51,44,54,48,43,98,88,66,30.20,30.10,9,4,11,0.01
2013-10-19,62,50,44,53,47,43,98,92,66,30.16,30.11,10,4,11,0.00
2013-10-20,58,48,44,52,46,43,98,93,78,30.17,30.09,10,5,12,0.00
2013-10-21,62,51,46,54,48,44,96,89,73,30.11,30.01,10,6,15,0.00
2013-10-22,64,51,46,56,49,45,98,91,74,30.06,29.99,12,6,15,0.00
2013-10-23,54,48,44,52,47,43,99,97,90,30.04,29.99,7,2,8,0.01
2013-10-24,51,49,48,50,48,47,98,96,93,30.13,30.02,7,2,9,0.00
2013-10-25,54,50,46,50,48,45,97,92,84,30.28,30.13,5,1,6,0.00
2013-10-26,56,48,41,50,45,40,99,91,76,30.31,30.18,7,2,7,0.01
2013-10-27,58,51,44,50,46,42,97,85,65,30.20,29.88,20,5,24,0.07
2013-10-28,59,50,40,44,41,35,92,71,45,29.93,29.84,6,2,7,0.00
2013-10-29,57,44,34,44,38,33,97,83,47,30.06,29.94,7,2,8,0.00
2013-10-30,53,45,35,46,41,34,97,86,70,30.17,30.05,7,2,9,0.01
2013-10-31,52,50,47,50,48,44,98,92,81,30.28,30.13,6,1,7,0.05